Time;durP1;ratioP1;P1;durP2;ratioP2;P2;SDS_P1;SDS_P2;PMS_P1;PMS_P2;Temp;Humidity;BMP_temperature;BMP_pressure;BME280_temperature;BME280_humidity;BME280_pressure;Samples;Min_cycle;Max_cycle;Signal;HPM_P1;HPM_P2
2022/12/27 00:03:01;;;;;;;11.57;7.95;;;;;;;21.70;56.09;100679.88;20854396;28;20041;-84
2022/12/27 00:13:02;;;;;;;10.30;7.70;;;;;;;21.69;55.68;100697.50;20866744;28;20182;-84
2022/12/27 00:23:02;;;;;;;10.73;7.00;;;;;;;21.66;55.62;100671.38;20823047;28;20658;-83
2022/12/27 00:33:04;;;;;;;10.52;7.47;;;;;;;21.65;55.61;100659.16;20836962;28;20053;-83
2022/12/27 00:43:04;;;;;;;9.77;6.82;;;;;;;21.64;55.92;100669.81;20841415;28;20103;-83
2022/12/27 00:53:05;;;;;;;9.75;7.32;;;;;;;21.61;55.96;100639.25;20849464;28;20029;-83
2022/12/27 01:03:05;;;;;;;10.32;7.50;;;;;;;21.60;55.76;100640.22;20841934;28;20064;-85
2022/12/27 01:13:06;;;;;;;10.60;7.13;;;;;;;21.59;56.17;100649.06;20825339;28;20045;-85
2022/12/27 01:23:06;;;;;;;11.90;7.85;;;;;;;21.58;55.77;100614.00;20830647;28;20041;-84
2022/12/27 01:33:07;;;;;;;9.32;6.65;;;;;;;21.58;56.21;100629.78;20839297;28;20052;-85
2022/12/27 01:43:16;;;;;;;11.18;7.20;;;;;;;21.56;56.08;100644.00;20850365;28;20732;-85
2022/12/27 01:53:39;;;;;;;8.55;6.72;;;;;;;21.54;55.83;100638.84;20843323;28;20048;-85
2022/12/27 02:04:09;;;;;;;9.15;6.70;;;;;;;21.53;56.00;100660.03;20823753;28;20894;-85
2022/12/27 02:14:11;;;;;;;7.63;6.13;;;;;;;21.51;56.10;100660.16;20845320;28;20041;-84
2022/12/27 02:24:39;;;;;;;8.10;6.00;;;;;;;21.50;56.19;100660.28;20852392;28;20076;-84
2022/12/27 02:34:58;;;;;;;7.75;5.70;;;;;;;21.50;56.17;100665.56;20849768;28;20578;-83
2022/12/27 02:55:30;;;;;;;8.98;5.80;;;;;;;21.46;56.29;100632.47;20832676;28;20041;-84
2022/12/27 03:16:54;;;;;;;7.80;5.77;;;;;;;21.43;56.29;100670.41;20859611;28;20053;-85
2022/12/27 03:26:56;;;;;;;;;;;;;;;21.40;56.64;100674.13;20859570;28;20500;-82
2022/12/27 03:47:40;;;;;;;6.88;5.30;;;;;;;21.38;56.47;100689.19;20824068;28;20102;-81
2022/12/27 03:57:41;;;;;;;6.55;4.95;;;;;;;21.37;56.34;100697.22;20836964;28;20059;-79
2022/12/27 04:38:38;;;;;;;6.47;5.00;;;;;;;21.32;55.98;100749.41;20841111;28;20065;-82
2022/12/27 05:19:36;;;;;;;8.43;4.38;;;;;;;21.48;57.28;100807.09;20840013;28;20045;-84
2022/12/27 05:29:37;;;;;;;6.63;4.30;;;;;;;21.48;55.35;100807.91;20839808;28;20052;-82
2022/12/27 05:39:37;;;;;;;11.82;4.53;;;;;;;21.57;56.49;100820.47;20838963;28;21564;-83
2022/12/27 05:49:38;;;;;;;19.95;5.20;;;;;;;21.67;56.45;100839.09;20836157;28;20049;-85
2022/12/27 05:59:38;;;;;;;10.95;4.50;;;;;;;21.58;54.30;100869.59;20836981;28;20045;-82
2022/12/27 06:09:39;;;;;;;8.10;3.63;;;;;;;21.64;54.25;100876.22;20842272;28;20053;-83
2022/12/27 06:19:39;;;;;;;14.02;3.15;;;;;;;21.58;53.80;100871.38;20907253;28;20041;-82
2022/12/27 06:29:40;;;;;;;7.43;2.95;;;;;;;21.64;53.90;100881.50;20901640;28;20124;-82
2022/12/27 06:39:40;;;;;;;5.65;2.53;;;;;;;21.66;54.23;100895.38;20914789;28;20048;-81
2022/12/27 06:49:40;;;;;;;6.95;2.53;;;;;;;21.66;54.67;100913.84;20920902;28;20044;-83
2022/12/27 06:59:41;;;;;;;4.28;2.47;;;;;;;21.66;54.97;100928.81;20919040;28;20047;-83
2022/12/27 07:09:41;;;;;;;4.50;2.90;;;;;;;21.66;55.04;100939.34;20901877;28;20048;-82
2022/12/27 07:19:42;;;;;;;3.20;2.38;;;;;;;21.65;54.67;100958.75;20916379;28;20037;-82
2022/12/27 07:29:42;;;;;;;6.85;2.53;;;;;;;21.63;54.75;100958.00;20917675;28;20399;-82
2022/12/27 07:39:43;;;;;;;4.70;2.00;;;;;;;21.62;54.92;100970.34;20919569;28;20045;-82
2022/12/27 07:49:44;;;;;;;6.65;2.30;;;;;;;21.61;54.94;100986.28;20922052;28;20049;-82
2022/12/27 07:59:44;;;;;;;4.50;2.10;;;;;;;21.60;54.68;101022.31;20915177;28;20056;-82
2022/12/27 08:09:46;;;;;;;4.57;2.25;;;;;;;21.58;54.57;101061.09;20914186;28;20040;-82
2022/12/27 08:19:49;;;;;;;4.77;2.83;;;;;;;21.58;54.45;101083.03;20911552;28;20045;-82
2022/12/27 08:29:50;;;;;;;5.15;3.00;;;;;;;21.57;54.41;101104.25;20913302;28;20040;-82
2022/12/27 08:39:50;;;;;;;5.78;4.32;;;;;;;21.58;54.47;101132.25;20905701;28;20040;-82
2022/12/27 08:49:50;;;;;;;8.35;5.43;;;;;;;21.56;54.10;101107.78;20913735;28;20041;-82
2022/12/27 08:59:51;;;;;;;8.27;5.80;;;;;;;21.55;53.88;101114.00;20914036;28;20043;-82
2022/12/27 09:09:51;;;;;;;6.50;5.45;;;;;;;21.57;53.79;101105.06;20910117;28;20075;-82
2022/12/27 09:19:52;;;;;;;7.80;5.95;;;;;;;21.59;53.63;101116.38;20911953;28;20051;-82
2022/12/27 09:29:52;;;;;;;9.00;6.80;;;;;;;21.63;53.58;101105.59;20910921;28;20045;-81
2022/12/27 09:39:52;;;;;;;8.88;6.63;;;;;;;21.67;53.31;101134.28;20907339;28;20041;-82
2022/12/27 09:50:00;;;;;;;10.13;6.80;;;;;;;21.72;53.50;101126.91;20903101;28;20044;-82
2022/12/27 10:00:04;;;;;;;9.43;6.90;;;;;;;21.77;53.17;101126.59;20903448;28;20509;-82
2022/12/27 10:10:37;;;;;;;10.35;6.35;;;;;;;21.82;53.13;101163.19;20888193;28;20075;-81
2022/12/27 10:20:43;;;;;;;7.45;5.97;;;;;;;21.87;53.00;101155.81;20904869;28;20083;-82
2022/12/27 10:30:44;;;;;;;7.15;5.25;;;;;;;21.95;52.23;101160.53;20908187;28;20083;-82
2022/12/27 10:41:01;;;;;;;8.13;6.07;;;;;;;21.98;52.13;101171.72;20904219;28;20053;-82
2022/12/27 10:51:08;;;;;;;6.45;4.70;;;;;;;22.04;51.60;101202.13;20918617;28;20111;-82
2022/12/27 11:01:36;;;;;;;7.13;4.82;;;;;;;22.10;51.49;101192.97;20916289;28;20131;-82
2022/12/27 11:11:36;;;;;;;5.82;4.53;;;;;;;22.15;51.25;101194.31;20914154;28;20063;-83
2022/12/27 11:21:39;;;;;;;4.85;4.07;;;;;;;22.19;51.24;101193.16;20917660;28;20045;-82
2022/12/27 11:31:46;;;;;;;5.05;4.20;;;;;;;22.25;50.93;101186.59;20916065;28;20052;-82
2022/12/27 11:41:53;;;;;;;5.82;4.00;;;;;;;22.32;50.75;101176.47;20914503;28;20048;-82
2022/12/27 11:52:09;;;;;;;4.15;3.67;;;;;;;22.37;50.74;101208.66;20916469;28;20048;-82
2022/12/27 12:02:31;;;;;;;4.38;3.38;;;;;;;22.44;50.76;101228.44;20905810;28;20056;-82
2022/12/27 12:12:34;;;;;;;4.78;3.63;;;;;;;22.52;50.49;101206.78;20914796;28;20112;-82
2022/12/27 12:22:50;;;;;;;3.95;3.28;;;;;;;22.57;49.93;101187.97;20909788;28;20442;-82
2022/12/27 12:33:14;;;;;;;3.20;2.88;;;;;;;22.58;49.81;101203.69;20895775;28;20045;-82
2022/12/27 12:43:36;;;;;;;3.33;3.00;;;;;;;22.57;49.88;101225.78;20893392;28;20053;-83
2022/12/27 12:53:45;;;;;;;;;;;;;;;22.56;49.78;101232.00;20909771;28;20120;-82
2022/12/27 13:04:04;;;;;;;2.92;2.55;;;;;;;22.55;49.54;101257.53;20905738;28;19920;-83
2022/12/27 13:14:29;;;;;;;2.70;2.33;;;;;;;22.54;49.56;101284.91;20907146;28;20037;-82
2022/12/27 13:24:29;;;;;;;2.78;2.35;;;;;;;22.50;49.49;101279.94;20905829;28;20041;-81
2022/12/27 13:34:43;;;;;;;3.05;2.30;;;;;;;22.43;49.78;101291.88;20896353;28;20095;-83
2022/12/27 13:44:46;;;;;;;2.72;2.22;;;;;;;22.34;49.72;101295.97;20891437;28;20137;-82
2022/12/27 13:55:00;;;;;;;2.85;2.20;;;;;;;22.29;48.50;101316.50;20896292;28;20106;-80
2022/12/27 14:05:00;;;;;;;2.38;2.15;;;;;;;22.23;48.32;101331.81;20906377;28;20094;-82
2022/12/27 14:15:05;;;;;;;2.28;2.05;;;;;;;22.19;47.97;101340.03;20906135;28;20060;-83
2022/12/27 14:25:56;;;;;;;2.00;1.80;;;;;;;22.14;48.23;101348.28;20922897;28;20049;-82
2022/12/27 14:36:28;;;;;;;2.00;1.83;;;;;;;22.07;48.77;101373.38;20924765;28;20051;-82
2022/12/27 14:46:53;;;;;;;2.15;1.80;;;;;;;22.00;48.56;101383.44;20897112;28;20037;-82
2022/12/27 14:57:18;;;;;;;3.50;1.83;;;;;;;21.94;48.83;101394.41;20905460;28;20057;-82
2022/12/27 15:07:35;;;;;;;2.78;1.98;;;;;;;21.88;49.04;101414.09;20901835;28;20119;-82
2022/12/27 15:17:53;;;;;;;1.55;1.42;;;;;;;21.80;49.36;101432.22;20920169;28;20060;-82
2022/12/27 15:28:29;;;;;;;1.67;1.45;;;;;;;21.76;49.50;101433.34;20896763;28;20072;-82
2022/12/27 15:38:39;;;;;;;2.58;1.77;;;;;;;21.71;49.86;101440.69;20915225;28;20116;-82
2022/12/27 15:48:59;;;;;;;1.40;1.30;;;;;;;21.67;49.95;101444.47;20890242;28;20419;-82
2022/12/27 15:59:33;;;;;;;1.52;1.42;;;;;;;21.63;50.10;101459.63;20889477;28;20856;-82
2022/12/27 16:09:36;;;;;;;1.52;1.42;;;;;;;21.58;49.67;101472.22;20900300;28;20052;-82
2022/12/27 16:19:50;;;;;;;1.40;1.30;;;;;;;21.56;50.05;101485.50;20908351;28;20546;-82
2022/12/27 16:29:51;;;;;;;1.45;1.30;;;;;;;21.52;49.96;101481.34;20912053;28;20661;-81
2022/12/27 16:39:51;;;;;;;1.30;1.20;;;;;;;21.48;49.87;101490.38;20909963;28;20120;-81
2022/12/27 16:50:05;;;;;;;1.30;1.20;;;;;;;21.46;50.33;101484.38;20910036;28;20048;-82
2022/12/27 17:00:42;;;;;;;1.42;1.33;;;;;;;21.43;50.15;101508.25;20908895;28;20163;-82
2022/12/27 17:10:49;;;;;;;1.45;1.23;;;;;;;21.38;49.94;101505.88;20908802;28;20041;-82
2022/12/27 17:21:21;;;;;;;1.20;1.10;;;;;;;21.34;50.11;101509.66;20907756;28;20187;-81
2022/12/27 17:31:37;;;;;;;1.33;1.20;;;;;;;21.32;50.36;101519.44;20893096;28;20859;-81
2022/12/27 18:02:50;;;;;;;1.60;1.10;;;;;;;21.25;50.29;101561.13;20925668;28;20048;-81
2022/12/27 18:12:57;;;;;;;1.27;1.17;;;;;;;21.23;50.06;101570.06;20927528;28;20041;-82
2022/12/27 18:23:01;;;;;;;1.58;1.23;;;;;;;21.20;49.99;101576.34;20926772;28;20053;-82
2022/12/27 18:33:02;;;;;;;1.42;1.10;;;;;;;21.17;50.11;101584.41;20925942;28;20434;-81
2022/12/27 18:43:14;;;;;;;1.50;1.23;;;;;;;21.16;50.03;101595.06;20920833;28;20047;-81
2022/12/27 18:53:24;;;;;;;2.17;1.15;;;;;;;21.13;50.25;101597.84;20920948;28;20949;-81
2022/12/27 19:03:26;;;;;;;1.20;1.10;;;;;;;21.12;50.36;101607.56;20920872;28;20080;-82
2022/12/27 19:13:42;;;;;;;1.48;1.20;;;;;;;21.08;50.00;101590.22;20919041;28;20049;-82
2022/12/27 19:23:47;;;;;;;1.63;1.17;;;;;;;21.04;49.99;101593.97;20916302;28;20118;-82
2022/12/27 19:33:58;;;;;;;2.03;1.20;;;;;;;21.01;50.01;101584.47;20916268;28;20061;-82
2022/12/27 19:43:59;;;;;;;1.25;1.15;;;;;;;20.99;50.20;101604.75;20913581;28;20060;-82
2022/12/27 19:54:00;;;;;;;1.20;1.10;;;;;;;20.97;50.32;101614.56;20910160;28;20070;-82
2022/12/27 20:04:00;;;;;;;1.95;1.20;;;;;;;20.94;50.39;101610.28;20912130;28;20072;-82
2022/12/27 20:14:01;;;;;;;1.48;1.10;;;;;;;20.93;50.18;101602.47;20898438;28;20502;-82
2022/12/27 20:24:02;;;;;;;1.60;1.20;;;;;;;20.90;50.12;101598.25;20908658;28;20052;-82
2022/12/27 20:34:03;;;;;;;1.65;1.25;;;;;;;20.88;49.93;101612.44;20911720;28;20289;-81
2022/12/27 20:44:05;;;;;;;1.55;1.30;;;;;;;20.86;50.23;101620.44;20909213;28;20488;-81
2022/12/27 20:54:05;;;;;;;1.90;1.33;;;;;;;20.85;50.15;101633.66;20911185;28;20526;-81
2022/12/27 21:04:06;;;;;;;1.73;1.42;;;;;;;20.82;50.02;101618.88;20893335;28;20072;-82
2022/12/27 21:14:09;;;;;;;1.65;1.38;;;;;;;20.78;49.76;101636.63;20886383;28;20446;-82
2022/12/27 21:24:10;;;;;;;;;;;;;;;20.77;50.01;101645.47;20909373;28;20060;-81
2022/12/27 21:34:11;;;;;;;1.80;1.50;;;;;;;20.75;50.00;101641.22;20894004;28;20298;-82
2022/12/27 21:44:12;;;;;;;1.80;1.40;;;;;;;20.72;49.96;101655.41;20892604;28;20128;-81
2022/12/27 21:54:12;;;;;;;2.20;1.60;;;;;;;20.70;50.05;101637.97;20884331;28;20088;-81
2022/12/27 22:04:13;;;;;;;2.25;1.75;;;;;;;20.68;49.77;101643.31;20905038;28;20079;-81
2022/12/27 22:14:13;;;;;;;1.98;1.70;;;;;;;20.65;50.02;101648.75;20906600;28;20090;-81
2022/12/27 22:24:18;;;;;;;2.45;1.70;;;;;;;20.64;50.15;101649.66;20909733;28;20067;-81
2022/12/27 22:34:18;;;;;;;2.20;1.70;;;;;;;20.62;49.65;101651.56;20908972;28;20041;-81
2022/12/27 22:44:18;;;;;;;2.42;1.70;;;;;;;20.59;49.89;101642.06;20899336;28;20080;-81
2022/12/27 22:54:20;;;;;;;2.47;1.85;;;;;;;20.58;49.64;101631.59;20904474;28;20126;-81
2022/12/27 23:04:20;;;;;;;1.77;1.60;;;;;;;20.57;49.63;101633.38;20922321;28;20144;-81
2022/12/27 23:14:21;;;;;;;2.13;1.75;;;;;;;20.54;49.80;101628.28;20911259;28;20088;-80
2022/12/27 23:24:21;;;;;;;2.78;1.50;;;;;;;20.54;49.95;101624.81;20917451;28;20044;-81
2022/12/27 23:34:23;;;;;;;1.98;1.50;;;;;;;20.51;49.63;101619.69;20924326;28;20033;-81
2022/12/27 23:44:23;;;;;;;1.60;1.50;;;;;;;20.48;49.85;101603.19;20898491;28;20160;-81
2022/12/27 23:54:24;;;;;;;2.00;1.48;;;;;;;20.47;49.63;101593.56;20918955;28;20053;-82
